createdAt,value
2023-02-13T00:00:38.801Z,21.50
2023-02-13T00:03:05.557Z,22.30
2023-02-13T00:05:32.345Z,20.63
2023-02-13T00:08:00.714Z,20.90
2023-02-13T00:10:27.899Z,20.83
2023-02-13T00:12:54.499Z,21.20
2023-02-13T00:15:21.222Z,21.35
2023-02-13T00:17:47.840Z,20.00
2023-02-13T00:20:14.921Z,20.58
2023-02-13T00:22:41.917Z,20.17
2023-02-13T00:25:09.151Z,20.42
2023-02-13T00:27:36.117Z,20.45
2023-02-13T00:30:03.622Z,20.38
2023-02-13T00:32:31.219Z,21.60
2023-02-13T00:34:58.445Z,21.83
2023-02-13T00:37:25.386Z,20.77
2023-02-13T00:39:52.497Z,20.75
2023-02-13T00:42:18.961Z,20.27
2023-02-13T00:44:45.704Z,21.40
2023-02-13T00:47:14.922Z,19.77
2023-02-13T00:49:42.036Z,19.92
2023-02-13T00:52:08.694Z,20.08
2023-02-13T00:54:37.368Z,21.40
2023-02-13T00:57:06.180Z,20.80
2023-02-13T00:59:33.817Z,19.50
2023-02-13T01:02:00.461Z,19.60
2023-02-13T01:04:27.212Z,21.58
2023-02-13T01:06:56.967Z,20.20
2023-02-13T01:09:24.624Z,22.25
2023-02-13T01:11:51.107Z,21.80
2023-02-13T01:14:17.657Z,19.73
2023-02-13T01:16:44.629Z,20.75
2023-02-13T01:19:11.428Z,22.00
2023-02-13T01:21:38.073Z,20.08
2023-02-13T01:24:05.777Z,21.23
2023-02-13T01:26:32.647Z,21.15
2023-02-13T01:28:59.377Z,20.95
2023-02-13T01:31:26.373Z,19.98
2023-02-13T01:33:53.503Z,21.60
2023-02-13T01:36:22.220Z,20.65
2023-02-13T01:38:49.064Z,20.45
2023-02-13T01:41:15.924Z,21.02
2023-02-13T01:43:44.022Z,21.35
2023-02-13T01:46:11.802Z,22.15
2023-02-13T01:48:38.553Z,21.88
2023-02-13T01:51:08.031Z,19.75
2023-02-13T01:53:45.494Z,21.80
2023-02-13T01:56:19.658Z,21.17
2023-02-13T01:58:48.535Z,20.50
2023-02-13T02:01:15.437Z,21.15
2023-02-13T02:03:48.573Z,21.13
2023-02-13T02:06:26.744Z,21.60
2023-02-13T02:08:54.318Z,21.38
2023-02-13T02:11:25.948Z,22.30
2023-02-13T02:13:53.219Z,20.65
2023-02-13T02:16:32.520Z,20.77
2023-02-13T02:19:01.650Z,22.50
2023-02-13T02:21:43.708Z,21.30
2023-02-13T02:24:16.433Z,20.52
2023-02-13T02:26:42.987Z,21.23
2023-02-13T02:29:15.336Z,21.02
2023-02-13T02:31:58.652Z,20.17
2023-02-13T02:34:45.732Z,21.98
2023-02-13T02:37:24.769Z,21.90
2023-02-13T02:40:10.593Z,21.15
2023-02-13T02:42:56.382Z,22.08
2023-02-13T02:45:22.907Z,21.40
2023-02-13T02:48:15.280Z,21.02
2023-02-13T02:50:53.745Z,22.13
2023-02-13T02:53:29.827Z,21.02
2023-02-13T02:56:05.535Z,20.73
2023-02-13T02:58:55.738Z,19.90
2023-02-13T03:01:47.024Z,21.77
2023-02-13T03:04:56.005Z,20.83
2023-02-13T03:07:22.595Z,21.88
2023-02-13T03:10:11.809Z,21.90
2023-02-13T03:13:00.112Z,21.70
2023-02-13T03:15:26.989Z,22.30
2023-02-13T03:18:12.802Z,21.95
2023-02-13T03:21:06.988Z,20.80
2023-02-13T03:23:33.664Z,21.08
2023-02-13T03:26:10.273Z,21.33
2023-02-13T03:28:58.779Z,22.48
2023-02-13T03:31:31.251Z,22.83
2023-02-13T03:34:01.350Z,21.95
2023-02-13T03:36:49.894Z,22.33
2023-02-13T03:39:19.617Z,21.70
2023-02-13T03:41:50.726Z,21.17
2023-02-13T03:44:36.046Z,20.98
2023-02-13T03:49:57.966Z,20.95
2023-02-13T03:52:31.795Z,22.88
2023-02-13T03:55:25.344Z,21.92
2023-02-13T03:58:13.173Z,24.23
2023-02-13T04:00:42.885Z,23.15
2023-02-13T04:03:27.449Z,21.10
2023-02-13T04:05:58.544Z,22.27
2023-02-13T04:08:25.119Z,22.23
2023-02-13T04:10:58.311Z,22.17
2023-02-13T04:13:28.183Z,22.05
2023-02-13T04:15:57.475Z,22.42
2023-02-13T04:18:27.262Z,24.00
2023-02-13T04:20:53.954Z,21.95
2023-02-13T04:23:20.702Z,22.02
2023-02-13T04:25:50.136Z,21.15
2023-02-13T04:28:17.029Z,23.02
2023-02-13T04:30:44.424Z,22.38
2023-02-13T04:33:11.190Z,23.13
2023-02-13T04:35:37.854Z,21.20
2023-02-13T04:38:04.808Z,22.48
2023-02-13T04:40:32.239Z,20.70
2023-02-13T04:42:59.224Z,23.00
2023-02-13T04:45:26.095Z,22.20
2023-02-13T04:47:53.612Z,21.33
2023-02-13T04:50:20.705Z,21.80
2023-02-13T04:52:47.789Z,23.15
2023-02-13T04:55:16.065Z,21.60
2023-02-13T04:57:42.713Z,22.67
2023-02-13T05:00:09.878Z,21.55
2023-02-13T05:02:38.735Z,22.75
2023-02-13T05:05:06.414Z,21.98
2023-02-13T05:07:33.214Z,22.98
2023-02-13T05:09:59.743Z,21.35
2023-02-13T05:12:26.485Z,23.15
2023-02-13T05:14:53.281Z,23.05
2023-02-13T05:17:19.892Z,22.83
2023-02-13T05:19:46.712Z,25.13
2023-02-13T05:22:31.946Z,23.40
2023-02-13T05:24:58.740Z,22.88
2023-02-13T05:27:25.492Z,23.42
2023-02-13T05:29:52.091Z,22.27
2023-02-13T05:32:19.058Z,24.55
2023-02-13T05:34:46.195Z,24.20
2023-02-13T05:37:12.772Z,22.92
2023-02-13T05:39:39.406Z,23.13
2023-02-13T05:42:06.029Z,24.67
2023-02-13T05:44:33.331Z,22.45
2023-02-13T05:47:00.070Z,24.33
2023-02-13T05:49:26.874Z,22.63
2023-02-13T05:51:53.426Z,23.63
2023-02-13T05:54:20.168Z,23.92
2023-02-13T05:56:47.132Z,23.95
2023-02-13T05:59:14.213Z,24.35
2023-02-13T06:01:41.014Z,22.67
2023-02-13T06:04:07.951Z,26.05
2023-02-13T06:06:34.565Z,24.95
2023-02-13T06:09:01.244Z,24.83
2023-02-13T06:11:27.964Z,24.27
2023-02-13T06:13:54.744Z,24.45
2023-02-13T06:16:22.727Z,24.00
2023-02-13T06:18:49.452Z,23.73
2023-02-13T06:21:16.169Z,24.05
2023-02-13T06:23:42.829Z,24.58
2023-02-13T06:26:11.109Z,24.38
2023-02-13T06:28:38.034Z,24.58
2023-02-13T06:31:04.950Z,25.50
2023-02-13T06:33:31.982Z,25.05
2023-02-13T06:35:58.666Z,25.98
2023-02-13T06:38:25.471Z,25.83
2023-02-13T06:40:59.524Z,25.85
2023-02-13T06:43:29.327Z,27.05
2023-02-13T06:45:56.382Z,28.20
2023-02-13T06:48:23.300Z,28.67
2023-02-13T06:50:52.370Z,29.17
2023-02-13T06:53:24.782Z,28.20
2023-02-13T06:55:53.172Z,29.38
2023-02-13T06:58:20.475Z,28.88
2023-02-13T07:00:47.502Z,28.90
2023-02-13T07:03:14.335Z,29.05
2023-02-13T07:05:42.068Z,30.60
2023-02-13T07:08:09.498Z,29.92
2023-02-13T07:10:39.612Z,29.92
2023-02-13T07:13:06.594Z,29.75
2023-02-13T07:15:34.910Z,28.98
2023-02-13T07:18:01.658Z,30.08
2023-02-13T07:20:28.596Z,29.77
2023-02-13T07:22:59.196Z,30.30
2023-02-13T07:25:26.566Z,29.67
2023-02-13T07:27:53.297Z,31.45
2023-02-13T07:30:19.920Z,29.85
2023-02-13T07:32:46.405Z,30.17
2023-02-13T07:35:13.288Z,30.67
2023-02-13T07:37:40.040Z,28.60
2023-02-13T07:40:08.723Z,30.27
2023-02-13T07:42:36.317Z,29.13
2023-02-13T07:45:05.805Z,30.38
2023-02-13T07:47:33.509Z,31.08
2023-02-13T07:50:00.405Z,30.27
2023-02-13T07:52:27.323Z,31.05
2023-02-13T07:54:54.431Z,29.88
2023-02-13T07:57:21.266Z,30.35
2023-02-13T07:59:48.061Z,31.65
2023-02-13T08:02:15.355Z,30.50
2023-02-13T08:04:46.520Z,30.40
2023-02-13T08:07:14.815Z,30.13
2023-02-13T08:10:02.287Z,30.35
2023-02-13T08:12:29.182Z,29.92
2023-02-13T08:14:55.676Z,30.10
2023-02-13T08:17:22.710Z,31.35
2023-02-13T08:19:50.033Z,31.95
2023-02-13T08:22:17.106Z,30.80
2023-02-13T08:24:43.732Z,31.65
2023-02-13T08:27:13.735Z,32.55
2023-02-13T08:29:40.554Z,30.25
2023-02-13T08:32:07.540Z,31.60
2023-02-13T08:34:34.744Z,33.13
2023-02-13T08:37:01.827Z,30.73
2023-02-13T08:39:28.453Z,29.70
2023-02-13T08:41:55.209Z,31.20
2023-02-13T08:44:22.161Z,32.13
2023-02-13T08:46:48.908Z,31.52
2023-02-13T08:49:16.037Z,31.30
2023-02-13T08:51:43.065Z,32.60
2023-02-13T08:54:09.868Z,31.73
2023-02-13T08:56:36.389Z,31.60
2023-02-13T08:59:15.984Z,33.22
2023-02-13T09:01:42.867Z,33.20
2023-02-13T09:04:09.935Z,31.50
2023-02-13T09:06:37.010Z,33.72
2023-02-13T09:09:05.310Z,33.00
2023-02-13T09:11:32.078Z,31.83
2023-02-13T09:13:59.405Z,32.97
2023-02-13T09:16:26.311Z,32.63
2023-02-13T09:18:52.893Z,31.58
2023-02-13T09:21:21.237Z,31.33
2023-02-13T09:23:48.149Z,31.73
2023-02-13T09:26:19.677Z,31.92
2023-02-13T09:28:47.289Z,31.02
2023-02-13T09:31:19.201Z,31.15
2023-02-13T09:33:46.936Z,31.92
2023-02-13T09:36:15.420Z,33.70
2023-02-13T09:38:46.070Z,31.48
2023-02-13T09:41:29.442Z,32.72
2023-02-13T09:44:35.271Z,32.33
2023-02-13T09:47:08.314Z,32.22
2023-02-13T09:49:37.506Z,31.55
2023-02-13T09:52:04.215Z,30.10
2023-02-13T09:54:32.354Z,28.85
2023-02-13T09:57:05.106Z,27.75
2023-02-13T09:59:51.189Z,26.20
2023-02-13T10:02:36.948Z,27.25
2023-02-13T10:05:22.881Z,26.17
2023-02-13T10:08:08.356Z,24.73
2023-02-13T10:10:44.216Z,23.52
2023-02-13T10:13:11.740Z,22.90
2023-02-13T10:15:43.404Z,22.20
2023-02-13T10:18:13.399Z,23.40
2023-02-13T10:20:43.559Z,23.15
2023-02-13T10:23:13.477Z,24.27
2023-02-13T10:25:46.911Z,24.27
2023-02-13T10:28:19.310Z,22.42
2023-02-13T10:30:52.691Z,19.90
2023-02-13T10:33:30.847Z,19.45
2023-02-13T10:36:03.885Z,19.60
2023-02-13T10:38:32.068Z,19.52
2023-02-13T10:40:59.312Z,19.63
2023-02-13T10:43:28.950Z,19.73
2023-02-13T10:46:18.104Z,19.73
2023-02-13T10:49:08.445Z,19.00
2023-02-13T10:51:38.071Z,17.83
2023-02-13T10:54:16.839Z,18.02
2023-02-13T10:56:48.643Z,18.75
2023-02-13T10:59:37.827Z,18.08
2023-02-13T11:02:21.846Z,19.25
2023-02-13T11:04:52.777Z,18.73
2023-02-13T11:07:21.848Z,19.05
2023-02-13T11:09:49.685Z,19.10
2023-02-13T11:12:27.753Z,18.23
2023-02-13T11:14:58.767Z,18.73
2023-02-13T11:17:27.225Z,19.05
2023-02-13T11:19:58.087Z,19.10
2023-02-13T11:22:35.392Z,18.90
2023-02-13T11:25:08.072Z,19.08
2023-02-13T11:27:37.400Z,18.80
2023-02-13T11:30:27.260Z,20.50
2023-02-13T11:33:01.205Z,19.23
2023-02-13T11:35:32.774Z,19.07
2023-02-13T11:38:21.047Z,20.30
2023-02-13T11:40:52.848Z,19.05
2023-02-13T11:43:37.647Z,18.73
2023-02-13T11:46:07.217Z,19.23
2023-02-13T11:48:40.542Z,19.45
2023-02-13T11:51:07.215Z,20.15
2023-02-13T11:53:38.356Z,19.40
2023-02-13T11:56:08.065Z,19.17
2023-02-13T11:58:35.288Z,19.10
2023-02-13T12:01:20.201Z,18.90
2023-02-13T12:04:06.452Z,17.65
2023-02-13T12:06:40.505Z,19.00
2023-02-13T12:09:15.671Z,18.70
2023-02-13T12:11:52.322Z,18.60
2023-02-13T12:14:23.610Z,18.55
2023-02-13T12:16:51.532Z,17.15
2023-02-13T12:19:23.352Z,17.25
2023-02-13T12:21:50.145Z,16.65
2023-02-13T12:24:19.682Z,16.85
2023-02-13T12:26:52.336Z,16.50
2023-02-13T12:29:38.483Z,17.10
2023-02-13T12:32:13.062Z,16.65
2023-02-13T12:34:52.025Z,18.08
2023-02-13T12:37:32.429Z,16.70
2023-02-13T12:40:13.760Z,16.75
2023-02-13T12:42:40.336Z,16.95
2023-02-13T12:45:09.708Z,17.58
2023-02-13T12:47:46.110Z,16.65
2023-02-13T12:50:23.323Z,17.30
2023-02-13T12:52:52.950Z,17.02
2023-02-13T12:55:19.457Z,17.33
2023-02-13T12:58:01.292Z,17.10
2023-02-13T13:00:30.670Z,17.55
2023-02-13T13:03:23.977Z,17.10
2023-02-13T13:06:08.959Z,16.85
2023-02-13T13:08:44.012Z,18.08
2023-02-13T13:11:29.532Z,17.40
2023-02-13T13:14:02.004Z,16.25
2023-02-13T13:16:29.028Z,16.65
2023-02-13T13:19:07.726Z,16.52
2023-02-13T13:22:07.090Z,17.27
2023-02-13T13:24:46.106Z,18.35
2023-02-13T13:27:20.604Z,19.02
2023-02-13T13:29:52.084Z,21.20
2023-02-13T13:32:20.693Z,22.45
2023-02-13T13:34:47.601Z,19.95
2023-02-13T13:37:25.103Z,18.23
2023-02-13T13:40:04.933Z,16.23
2023-02-13T13:42:39.428Z,16.58
2023-02-13T13:45:11.580Z,15.23
2023-02-13T13:47:56.515Z,16.17
2023-02-13T13:50:24.938Z,15.50
2023-02-13T13:53:07.050Z,16.05
2023-02-13T13:56:01.505Z,15.52
2023-02-13T13:58:38.747Z,16.02
2023-02-13T14:01:23.768Z,15.68
2023-02-13T14:03:52.782Z,16.52
2023-02-13T14:06:21.792Z,14.35
2023-02-13T14:08:49.076Z,14.60
2023-02-13T14:11:27.713Z,15.95
2023-02-13T14:13:54.482Z,14.57
2023-02-13T14:16:37.933Z,16.02
2023-02-13T14:19:06.094Z,16.52
2023-02-13T14:21:32.821Z,15.75
2023-02-13T14:24:04.065Z,15.43
2023-02-13T14:26:33.137Z,15.57
2023-02-13T14:29:08.930Z,15.18
2023-02-13T14:31:39.747Z,15.20
2023-02-13T14:34:08.657Z,14.40
2023-02-13T14:36:36.846Z,14.65
2023-02-13T14:39:08.828Z,15.77
2023-02-13T14:41:56.807Z,15.57
2023-02-13T14:44:29.361Z,15.35
2023-02-13T14:46:57.094Z,15.45
2023-02-13T14:49:26.116Z,15.15
2023-02-13T14:51:57.363Z,15.82
2023-02-13T14:54:33.495Z,15.68
2023-02-13T14:57:06.125Z,16.23
2023-02-13T14:59:37.361Z,15.05
2023-02-13T15:02:09.701Z,15.93
2023-02-13T15:04:42.136Z,15.85
2023-02-13T15:07:18.307Z,16.52
2023-02-13T15:09:53.355Z,16.17
2023-02-13T15:12:27.832Z,15.70
2023-02-13T15:14:54.678Z,15.07
2023-02-13T15:17:23.040Z,15.38
2023-02-13T15:19:51.616Z,15.65
2023-02-13T15:22:44.405Z,16.10
2023-02-13T15:25:26.929Z,15.48
2023-02-13T15:27:56.640Z,14.50
2023-02-13T15:30:24.588Z,15.48
2023-02-13T15:32:58.806Z,15.45
2023-02-13T15:35:33.279Z,15.23
2023-02-13T15:38:00.733Z,15.98
2023-02-13T15:40:33.024Z,15.85
2023-02-13T15:43:00.690Z,16.05
2023-02-13T15:45:28.942Z,16.35
2023-02-13T15:47:56.798Z,16.20
2023-02-13T15:50:34.734Z,15.82
2023-02-13T15:53:03.379Z,15.05
2023-02-13T15:55:31.793Z,14.88
2023-02-13T15:58:00.041Z,15.45
2023-02-13T16:00:31.692Z,15.02
2023-02-13T16:02:59.580Z,14.75
2023-02-13T16:05:39.578Z,15.30
2023-02-13T16:08:22.376Z,16.35
2023-02-13T16:10:48.950Z,15.38
2023-02-13T16:13:17.909Z,15.18
2023-02-13T16:15:44.597Z,14.82
2023-02-13T16:18:21.044Z,14.35
2023-02-13T16:20:53.477Z,16.27
2023-02-13T16:23:20.998Z,15.15
2023-02-13T16:25:48.499Z,14.63
2023-02-13T16:28:15.192Z,15.38
2023-02-13T16:30:46.056Z,14.05
2023-02-13T16:33:15.691Z,14.90
2023-02-13T16:35:45.949Z,16.05
2023-02-13T16:38:42.683Z,15.88
2023-02-13T16:41:22.159Z,15.15
2023-02-13T16:43:48.981Z,14.98
2023-02-13T16:46:15.673Z,14.32
2023-02-13T16:48:44.310Z,15.80
2023-02-13T16:51:11.067Z,15.13
2023-02-13T16:53:38.446Z,15.55
2023-02-13T16:56:09.146Z,15.70
2023-02-13T16:58:35.888Z,15.63
2023-02-13T17:01:04.354Z,15.70
2023-02-13T17:03:32.445Z,15.27
2023-02-13T17:06:03.274Z,16.38
2023-02-13T17:08:31.174Z,15.75
2023-02-13T17:11:05.464Z,16.02
2023-02-13T17:13:33.256Z,16.30
2023-02-13T17:16:00.183Z,14.63
2023-02-13T17:18:27.605Z,15.48
2023-02-13T17:20:54.526Z,16.48
2023-02-13T17:23:22.962Z,14.85
2023-02-13T17:25:51.411Z,15.80
2023-02-13T17:28:23.188Z,15.57
2023-02-13T17:30:51.175Z,15.32
2023-02-13T17:33:20.390Z,14.95
2023-02-13T17:35:47.890Z,15.95
2023-02-13T17:38:14.662Z,16.60
2023-02-13T17:40:41.995Z,16.85
2023-02-13T17:43:09.870Z,15.38
2023-02-13T17:45:37.823Z,15.90
2023-02-13T17:48:05.208Z,15.55
2023-02-13T17:50:32.684Z,15.18
2023-02-13T17:53:02.049Z,15.50
2023-02-13T17:55:29.649Z,15.48
2023-02-13T17:57:57.853Z,16.25
2023-02-13T18:00:25.599Z,17.85
2023-02-13T18:02:52.369Z,16.88
2023-02-13T18:05:19.876Z,16.35
2023-02-13T18:07:47.204Z,16.23
2023-02-13T18:10:16.106Z,15.98
2023-02-13T18:12:43.241Z,16.35
2023-02-13T18:15:10.208Z,18.77
2023-02-13T18:17:37.106Z,18.42
2023-02-13T18:20:04.920Z,17.48
2023-02-13T18:22:31.438Z,16.42
2023-02-13T18:24:58.149Z,15.43
2023-02-13T18:27:26.479Z,18.60
2023-02-13T18:29:53.930Z,17.35
2023-02-13T18:32:20.755Z,16.83
2023-02-13T18:34:51.962Z,16.48
2023-02-13T18:37:19.074Z,17.85
2023-02-13T18:39:50.125Z,17.00
2023-02-13T18:42:18.768Z,15.27
2023-02-13T18:44:45.558Z,16.77
2023-02-13T18:47:12.704Z,16.27
2023-02-13T18:49:39.430Z,16.02
2023-02-13T18:52:09.315Z,16.45
2023-02-13T18:54:36.244Z,15.95
2023-02-13T18:57:02.727Z,15.93
2023-02-13T18:59:29.857Z,15.65
2023-02-13T19:01:56.774Z,16.02
2023-02-13T19:04:23.614Z,16.60
2023-02-13T19:06:50.317Z,15.38
2023-02-13T19:09:17.181Z,16.05
2023-02-13T19:11:44.517Z,16.02
2023-02-13T19:14:12.845Z,15.85
2023-02-13T19:16:40.627Z,15.65
2023-02-13T19:19:07.950Z,15.43
2023-02-13T19:21:35.893Z,16.67
2023-02-13T19:24:03.917Z,17.58
2023-02-13T19:26:31.060Z,17.15
2023-02-13T19:29:00.659Z,16.80
2023-02-13T19:31:28.652Z,18.48
2023-02-13T19:33:55.375Z,18.08
2023-02-13T19:36:23.386Z,16.50
2023-02-13T19:38:54.080Z,16.17
2023-02-13T19:44:01.974Z,16.48
2023-02-13T19:46:30.623Z,15.98
2023-02-13T19:48:58.679Z,16.70
2023-02-13T19:51:27.816Z,16.38
2023-02-13T19:53:58.157Z,14.85
2023-02-13T19:56:27.181Z,17.27
2023-02-13T19:58:53.854Z,16.85
2023-02-13T20:01:22.412Z,17.38
2023-02-13T20:03:49.755Z,17.75
2023-02-13T20:06:18.165Z,16.40
2023-02-13T20:08:45.052Z,16.52
2023-02-13T20:11:12.925Z,16.60
2023-02-13T20:13:39.735Z,16.08
2023-02-13T20:16:07.488Z,16.85
2023-02-13T20:18:35.319Z,16.27
2023-02-13T20:21:05.945Z,16.02
2023-02-13T20:23:32.812Z,15.18
2023-02-13T20:26:03.745Z,15.60
2023-02-13T20:28:30.596Z,15.30
2023-02-13T20:30:58.401Z,15.50
2023-02-13T20:33:25.317Z,16.23
2023-02-13T20:35:51.879Z,15.95
2023-02-13T20:38:18.910Z,16.17
2023-02-13T20:40:46.438Z,15.48
2023-02-13T20:43:13.147Z,17.50
2023-02-13T20:45:42.064Z,15.15
2023-02-13T20:48:09.121Z,14.65
2023-02-13T20:50:36.086Z,16.75
2023-02-13T20:53:02.774Z,15.88
2023-02-13T20:55:29.640Z,15.73
2023-02-13T20:57:56.296Z,15.32
2023-02-13T21:00:23.415Z,16.15
2023-02-13T21:02:50.320Z,15.73
2023-02-13T21:05:16.920Z,15.13
2023-02-13T21:07:43.650Z,14.52
2023-02-13T21:10:10.764Z,16.05
2023-02-13T21:12:37.597Z,16.77
2023-02-13T21:15:04.130Z,15.60
2023-02-13T21:17:32.029Z,16.10
2023-02-13T21:19:58.641Z,14.80
2023-02-13T21:22:25.325Z,15.02
2023-02-13T21:24:52.350Z,14.52
2023-02-13T21:27:19.160Z,14.60
2023-02-13T21:29:45.765Z,14.88
2023-02-13T21:32:12.454Z,15.77
2023-02-13T21:34:39.348Z,15.00
2023-02-13T21:37:06.354Z,14.85
2023-02-13T21:39:33.710Z,15.20
2023-02-13T21:42:00.502Z,14.93
2023-02-13T21:44:27.297Z,14.50
2023-02-13T21:46:54.182Z,16.10
2023-02-13T21:49:20.872Z,15.15
2023-02-13T21:51:47.771Z,15.07
2023-02-13T21:54:14.398Z,15.05
2023-02-13T21:56:42.855Z,15.65
2023-02-13T21:59:10.876Z,14.88
2023-02-13T22:01:43.902Z,13.60
2023-02-13T22:04:10.780Z,16.27
2023-02-13T22:06:38.388Z,15.23
2023-02-13T22:09:15.310Z,15.38
2023-02-13T22:11:42.508Z,15.43
2023-02-13T22:14:12.169Z,15.07
2023-02-13T22:16:39.646Z,15.25
2023-02-13T22:19:06.906Z,15.75
2023-02-13T22:21:34.300Z,16.05
2023-02-13T22:24:01.288Z,15.50
2023-02-13T22:26:32.345Z,16.42
2023-02-13T22:29:01.131Z,15.68
2023-02-13T22:31:28.334Z,15.48
2023-02-13T22:34:05.278Z,16.33
2023-02-13T22:36:33.431Z,16.27
2023-02-13T22:39:00.249Z,15.77
2023-02-13T22:41:27.156Z,15.90
2023-02-13T22:43:53.866Z,16.73
2023-02-13T22:46:24.904Z,17.15
2023-02-13T22:48:52.593Z,17.15
2023-02-13T22:51:20.978Z,16.02
2023-02-13T22:53:48.512Z,17.38
2023-02-13T22:56:15.313Z,15.63
2023-02-13T22:58:42.105Z,16.17
2023-02-13T23:01:12.841Z,16.42
2023-02-13T23:03:39.565Z,16.33
2023-02-13T23:06:07.052Z,15.77
2023-02-13T23:08:33.863Z,16.77
2023-02-13T23:11:22.858Z,16.52
2023-02-13T23:13:49.666Z,15.70
2023-02-13T23:16:16.355Z,16.55
2023-02-13T23:18:43.968Z,16.10
2023-02-13T23:21:11.315Z,16.40
2023-02-13T23:23:41.257Z,17.67
2023-02-13T23:26:08.484Z,17.00
2023-02-13T23:28:35.624Z,16.95
2023-02-13T23:31:03.331Z,15.80
2023-02-13T23:33:30.352Z,16.58
2023-02-13T23:35:56.940Z,16.48
2023-02-13T23:38:23.976Z,16.10
2023-02-13T23:40:50.669Z,16.65
2023-02-13T23:43:17.637Z,17.40
2023-02-13T23:45:44.198Z,16.35
2023-02-13T23:48:12.861Z,16.98
2023-02-13T23:50:40.484Z,16.83
2023-02-13T23:53:07.456Z,17.17
2023-02-13T23:55:34.101Z,15.93
2023-02-13T23:58:00.904Z,16.25
